Hominy, OK (74035)

8:32 AM CDT on May 25, 2015 (GMT -0500)
PAWNEE | | Change Station
CLOSE
Current Station
Personal Weather Station
Location: Jennings, OK
Elevation: 925 ft
Nearby Weather Stations

Elev 925 ft 36.24 °N, 96.60 °W | Updated 41 seconds ago

Overcast
Overcast
70.0 °F
Feels Like 70.0 °F
N
0.7
Wind Variable Wind from NW
Gusts 3.8 mph

Today
High -- | Low -- °F
--% Chance of Precip.
Yesterday
High -- | Low -- °F
Precip. -- in
6:12 AM 8:33 PM
Waxing Crescent, 48% visible
Pressure 29.90 in
Visibility 5.0 miles
Clouds Mostly Cloudy 500 ft
Overcast 1000 ft
Dew Point 68 °F
Humidity 92%
Rainfall 17.18 in
Snow Depth Not available.
UV 1 out of 12
Pollen 5.80 out of 12
Air Quality Not available.
Flu Activity Sporadic
METAR KOWP 251315Z AUTO 15005KT 5SM BR BKN005 OVC010 21/21 A2990 RMK AO2 T02130205

More Conditions Fewer Conditions

Pressure 29.90 in
Visibility 5.0 miles
Clouds Mostly Cloudy 500 ft
Overcast 1000 ft
Dew Point 68 °F
Humidity 92%
Rainfall 17.18 in
Snow Depth Not available.
UV 1 out of 12
Pollen 5.80 out of 12
Air Quality Not available.
Flu Activity Sporadic
METAR KOWP 251315Z AUTO 15005KT 5SM BR BKN005 OVC010 21/21 A2990 RMK AO2 T02130205

More Conditions Fewer Conditions

10-Day Weather Forecast

Almanac

Astronomy

May. 25, 2015 Rise Set
Actual Time
Civil Twilight
Nautical Twilight
Astronomical Twilight
Moon
Length of Visible Light
Length of Day
Tomorrow will be .
, % of the Moon is Illuminated

Today's Extremes

State Highs State Lows

Community

WunderPhotos

Upload Photos

1,824,002 photos uploaded!

WunderBlogs® & News

Nearby

Air Quality

  Air Quality AQ Index Pollutant
Not available.

Snow Depth

Station Depth Elevation

Earthquake Activity

City Distance Mag. Time & Date
Minimum magnitude displayed is 2.5.

Coastal Water Temperatures

Place Temperature

Stations

Nearby Weather Stations

Station Location Temp. Windchill Dew Point Humidity Wind Precip. Elev Updated Type